Flight Track Log - Related Links

Times and Time Zones

All times are in EDT time to prevent confusion due to time zone crossing. See the N6ZE flight status page for this flight to view local times or setup timezone preferences in your user account.

Time Position Orientation Groundspeed Altitude Reporting Facility
EDT Latitude Longitude Course Direction KTS MPH feet Rate Location/Type
Thu 12:01:57 PM 26.4914 -81.7811 142° Southeast 190 219 2,500  Level Miami Center
Thu 12:02:59 PM 26.4306 -81.7697 170° South 216 249 5,700 3,048 Climbing Miami Center
Thu 12:04:01 PM 26.3689 -81.7364 154° Southeast 233 268 8,800 2,081 Climbing Miami Center
Thu 12:05:03 PM 26.3072 -81.6989 151° Southeast 257 296 10,000 624 Climbing Miami Center
Thu 12:06:06 PM 26.2197 -81.6544 156° South 319 367 10,100 480 Climbing Miami Center
Thu 12:07:00 PM 26.2001 -81.4501 142° Southeast  Level FlightAware Approximate
Thu 12:07:08 PM 26.1308 -81.6217 162° South 317 365 11,000  Level Miami Center
Thu 12:08:10 PM 26.0450 -81.5900 162° South 326 375 11,000  Level Miami Center
Thu 12:10:14 PM 25.8878 -81.4928 151° Southeast 325 374 11,000  Level Miami Center
Thu 12:11:16 PM 25.8358 -81.4014 122° Southeast 325 374 11,000  Level Miami Center
Thu 12:12:18 PM 25.7861 -81.3119 122° Southeast 333 383 11,000 -435 Level Miami Center
Thu 12:13:20 PM 25.7422 -81.2314 121° Southeast 329 379 10,100 -1,161 Descending Miami Center
Thu 12:14:22 PM 25.7033 -81.1583 121° Southeast 281 323 8,600 -1,488 Descending Miami Center
Thu 12:15:25 PM 25.6619 -81.0814 121° Southeast 289 333 7,000 -1,248 Descending Miami Center
Thu 12:16:27 PM 25.6125 -80.9917 121° Southeast 283 326 6,000 -682 Descending Miami Center
Thu 12:16:53 PM 25.5903 -80.9631 131° Southeast 261 300 6,000  Level Miami Center
Thu 12:17:29 PM 25.5675 -80.9283 126° Southeast 265 305 6,000  Level Miami Center
Thu 12:17:54 PM 25.5683 -80.8850 89° East 286 329 6,000  Level Miami Center
Thu 12:18:31 PM 25.5853 -80.8486 63° Northeast 275 316 6,000 -98 Level Miami Center
Thu 12:18:55 PM 25.5986 -80.8111 68° East 271 312 5,900 -484 Descending Miami Center
Thu 12:19:33 PM 25.6033 -80.7697 83° East 269 310 5,500 -873 Descending Miami Center
Thu 12:19:50 PM 25.6056 -80.7356 86° East 266 306 5,100 -1,161 Descending Miami Center
Thu 12:20:35 PM 25.6075 -80.6786 88° East 258 297 4,300 -1,075 Descending Miami Center
Thu 12:20:57 PM 25.6072 -80.6500 91° East 243 280 3,900 -968 Descending Miami Center
Thu 12:21:37 PM 25.6097 -80.6067 86° East 241 277 3,300 -873 Descending Miami Center
Thu 12:21:52 PM 25.6111 -80.5881 85° East 216 249 3,100 -968 Descending Miami Center
Thu 12:22:39 PM 25.6158 -80.5400 84° East 209 241 2,300 -1,000 Descending Miami Center
Thu 12:22:58 PM 25.6156 -80.5214 91° East 182 209 2,000 -387 Descending Miami Center
Thu 12:23:41 PM 25.6175 -80.4858 87° East 185 213 1,900 -231 Descending Miami Center
Thu 12:24:42 PM 25.6197 -80.4308 87° East 171 197 1,600 -324 Descending Miami Center
Thu 12:24:55 PM 25.6197 -80.4222 90° East 162 186 1,500 -871 Descending Miami Center
Thu 12:25:44 PM 25.6358 -80.3958 56° Northeast 149 171 700 -1,000 Descending Miami Center
Thu 12:25:55 PM 25.6422 -80.3986 339° North 139 160 500 -581 Descending Miami Center
Thu 12:26:46 PM 25.6436 -80.4322 273° West 129 148 100 -471 Descending Miami Center
Thu 12:28:00 PM 25.6476 -80.4332 200° South  Level Estimated

Login

Don't have an account? Register now (free) for customized features, flight alerts, and more!